sensor_id;sensor_type;location;lat;lon;timestamp;P1;durP1;ratioP1;P2;durP2;ratioP2
73814;SDS011;62145;55.648;37.602;2023-07-28T00:00:10;26.45;;;17.33;;
73814;SDS011;62145;55.648;37.602;2023-07-28T00:02:38;26.75;;;17.23;;
73814;SDS011;62145;55.648;37.602;2023-07-28T00:05:04;25.50;;;17.13;;
73814;SDS011;62145;55.648;37.602;2023-07-28T00:07:30;28.53;;;17.10;;
73814;SDS011;62145;55.648;37.602;2023-07-28T00:10:01;28.23;;;17.40;;
73814;SDS011;62145;55.648;37.602;2023-07-28T00:12:28;29.45;;;18.15;;
73814;SDS011;62145;55.648;37.602;2023-07-28T00:14:54;29.73;;;17.25;;
73814;SDS011;62145;55.648;37.602;2023-07-28T00:17:20;30.77;;;18.40;;
73814;SDS011;62145;55.648;37.602;2023-07-28T00:19:47;29.30;;;18.50;;
73814;SDS011;62145;55.648;37.602;2023-07-28T00:22:13;30.13;;;17.67;;
73814;SDS011;62145;55.648;37.602;2023-07-28T00:24:39;32.30;;;18.15;;
73814;SDS011;62145;55.648;37.602;2023-07-28T00:27:05;30.53;;;16.80;;
73814;SDS011;62145;55.648;37.602;2023-07-28T00:29:31;23.40;;;15.27;;
73814;SDS011;62145;55.648;37.602;2023-07-28T00:31:57;27.85;;;15.43;;
73814;SDS011;62145;55.648;37.602;2023-07-28T00:34:23;23.33;;;15.82;;
73814;SDS011;62145;55.648;37.602;2023-07-28T00:36:50;23.10;;;15.35;;
73814;SDS011;62145;55.648;37.602;2023-07-28T00:39:16;20.47;;;14.70;;
73814;SDS011;62145;55.648;37.602;2023-07-28T00:41:42;24.50;;;15.55;;
73814;SDS011;62145;55.648;37.602;2023-07-28T00:44:08;22.83;;;15.13;;
73814;SDS011;62145;55.648;37.602;2023-07-28T00:46:35;23.50;;;14.95;;
73814;SDS011;62145;55.648;37.602;2023-07-28T00:49:01;22.10;;;14.83;;
73814;SDS011;62145;55.648;37.602;2023-07-28T00:51:29;21.70;;;15.50;;
73814;SDS011;62145;55.648;37.602;2023-07-28T00:53:55;23.50;;;15.65;;
73814;SDS011;62145;55.648;37.602;2023-07-28T00:56:22;24.52;;;16.38;;
73814;SDS011;62145;55.648;37.602;2023-07-28T00:58:48;23.92;;;15.80;;
73814;SDS011;62145;55.648;37.602;2023-07-28T01:01:14;26.20;;;16.23;;
73814;SDS011;62145;55.648;37.602;2023-07-28T01:03:40;28.08;;;15.93;;
73814;SDS011;62145;55.648;37.602;2023-07-28T01:06:50;23.77;;;15.38;;
73814;SDS011;62145;55.648;37.602;2023-07-28T01:09:02;26.27;;;16.05;;
73814;SDS011;62145;55.648;37.602;2023-07-28T01:11:29;23.92;;;16.15;;
73814;SDS011;62145;55.648;37.602;2023-07-28T01:13:55;23.23;;;16.13;;
73814;SDS011;62145;55.648;37.602;2023-07-28T01:16:21;28.08;;;17.23;;
73814;SDS011;62145;55.648;37.602;2023-07-28T01:18:48;26.77;;;17.42;;
73814;SDS011;62145;55.648;37.602;2023-07-28T01:21:17;24.40;;;16.50;;
73814;SDS011;62145;55.648;37.602;2023-07-28T01:26:39;23.73;;;16.47;;
73814;SDS011;62145;55.648;37.602;2023-07-28T01:29:12;26.10;;;16.27;;
73814;SDS011;62145;55.648;37.602;2023-07-28T01:37:33;24.08;;;15.10;;
73814;SDS011;62145;55.648;37.602;2023-07-28T01:40:04;21.23;;;14.80;;
73814;SDS011;62145;55.648;37.602;2023-07-28T01:42:40;20.83;;;14.90;;
73814;SDS011;62145;55.648;37.602;2023-07-28T01:48:05;21.92;;;14.90;;
73814;SDS011;62145;55.648;37.602;2023-07-28T01:50:43;22.52;;;14.95;;
73814;SDS011;62145;55.648;37.602;2023-07-28T01:53:12;20.63;;;14.07;;
73814;SDS011;62145;55.648;37.602;2023-07-28T01:55:46;22.17;;;14.93;;
73814;SDS011;62145;55.648;37.602;2023-07-28T02:01:07;24.75;;;14.90;;
73814;SDS011;62145;55.648;37.602;2023-07-28T02:03:35;23.77;;;15.30;;
73814;SDS011;62145;55.648;37.602;2023-07-28T02:06:07;22.63;;;14.63;;
73814;SDS011;62145;55.648;37.602;2023-07-28T02:08:37;23.58;;;15.20;;
73814;SDS011;62145;55.648;37.602;2023-07-28T02:11:05;23.38;;;15.27;;
73814;SDS011;62145;55.648;37.602;2023-07-28T02:13:32;21.40;;;15.00;;
73814;SDS011;62145;55.648;37.602;2023-07-28T02:16:04;25.67;;;15.00;;
73814;SDS011;62145;55.648;37.602;2023-07-28T02:18:35;22.57;;;14.63;;
73814;SDS011;62145;55.648;37.602;2023-07-28T02:21:19;21.23;;;14.95;;
73814;SDS011;62145;55.648;37.602;2023-07-28T02:23:51;22.30;;;14.90;;
73814;SDS011;62145;55.648;37.602;2023-07-28T02:26:22;22.65;;;15.38;;
73814;SDS011;62145;55.648;37.602;2023-07-28T02:31:42;28.63;;;16.47;;
73814;SDS011;62145;55.648;37.602;2023-07-28T02:34:10;26.15;;;15.93;;
73814;SDS011;62145;55.648;37.602;2023-07-28T02:36:38;23.35;;;15.38;;
73814;SDS011;62145;55.648;37.602;2023-07-28T02:39:07;23.58;;;14.77;;
73814;SDS011;62145;55.648;37.602;2023-07-28T02:41:54;20.52;;;14.55;;
73814;SDS011;62145;55.648;37.602;2023-07-28T02:44:29;24.90;;;14.30;;
73814;SDS011;62145;55.648;37.602;2023-07-28T02:47:06;20.92;;;14.38;;
73814;SDS011;62145;55.648;37.602;2023-07-28T02:49:48;25.33;;;14.93;;
73814;SDS011;62145;55.648;37.602;2023-07-28T02:52:19;21.20;;;14.80;;
73814;SDS011;62145;55.648;37.602;2023-07-28T02:54:51;22.27;;;14.13;;
73814;SDS011;62145;55.648;37.602;2023-07-28T02:57:21;22.47;;;14.97;;
73814;SDS011;62145;55.648;37.602;2023-07-28T02:59:48;21.85;;;14.63;;
73814;SDS011;62145;55.648;37.602;2023-07-28T03:02:23;22.25;;;15.20;;
73814;SDS011;62145;55.648;37.602;2023-07-28T03:04:58;23.05;;;14.90;;
73814;SDS011;62145;55.648;37.602;2023-07-28T03:07:33;24.38;;;14.57;;
73814;SDS011;62145;55.648;37.602;2023-07-28T03:10:08;20.17;;;14.57;;
73814;SDS011;62145;55.648;37.602;2023-07-28T03:12:47;23.08;;;14.65;;
73814;SDS011;62145;55.648;37.602;2023-07-28T03:15:20;21.73;;;14.77;;
73814;SDS011;62145;55.648;37.602;2023-07-28T03:18:10;21.40;;;14.23;;
73814;SDS011;62145;55.648;37.602;2023-07-28T03:20:52;23.27;;;14.23;;
73814;SDS011;62145;55.648;37.602;2023-07-28T03:23:25;20.30;;;13.63;;
73814;SDS011;62145;55.648;37.602;2023-07-28T03:25:58;20.50;;;13.82;;
73814;SDS011;62145;55.648;37.602;2023-07-28T03:28:25;20.60;;;13.63;;
73814;SDS011;62145;55.648;37.602;2023-07-28T03:30:55;22.58;;;13.25;;
73814;SDS011;62145;55.648;37.602;2023-07-28T03:36:35;21.27;;;13.27;;
73814;SDS011;62145;55.648;37.602;2023-07-28T03:39:08;21.23;;;13.55;;
73814;SDS011;62145;55.648;37.602;2023-07-28T03:44:44;20.33;;;14.00;;
73814;SDS011;62145;55.648;37.602;2023-07-28T03:50:09;26.70;;;16.43;;
73814;SDS011;62145;55.648;37.602;2023-07-28T03:52:37;32.00;;;18.33;;
73814;SDS011;62145;55.648;37.602;2023-07-28T03:58:01;36.58;;;20.38;;
73814;SDS011;62145;55.648;37.602;2023-07-28T04:00:35;30.42;;;17.88;;
73814;SDS011;62145;55.648;37.602;2023-07-28T04:06:19;32.90;;;19.05;;
73814;SDS011;62145;55.648;37.602;2023-07-28T04:08:50;37.13;;;20.60;;
73814;SDS011;62145;55.648;37.602;2023-07-28T04:11:21;40.00;;;21.70;;
73814;SDS011;62145;55.648;37.602;2023-07-28T04:16:52;33.93;;;19.80;;
73814;SDS011;62145;55.648;37.602;2023-07-28T04:19:25;34.80;;;19.83;;
73814;SDS011;62145;55.648;37.602;2023-07-28T04:21:54;35.38;;;20.83;;
73814;SDS011;62145;55.648;37.602;2023-07-28T04:24:32;39.03;;;21.77;;
73814;SDS011;62145;55.648;37.602;2023-07-28T04:27:04;43.78;;;22.95;;
73814;SDS011;62145;55.648;37.602;2023-07-28T04:29:38;44.80;;;23.83;;
73814;SDS011;62145;55.648;37.602;2023-07-28T04:32:12;42.78;;;23.67;;
73814;SDS011;62145;55.648;37.602;2023-07-28T04:40:59;41.65;;;22.50;;
73814;SDS011;62145;55.648;37.602;2023-07-28T04:44:00;45.80;;;24.57;;
73814;SDS011;62145;55.648;37.602;2023-07-28T04:46:33;45.45;;;25.15;;
73814;SDS011;62145;55.648;37.602;2023-07-28T04:49:08;41.17;;;23.58;;
73814;SDS011;62145;55.648;37.602;2023-07-28T04:51:58;38.92;;;22.98;;
73814;SDS011;62145;55.648;37.602;2023-07-28T04:54:54;40.15;;;23.00;;
73814;SDS011;62145;55.648;37.602;2023-07-28T04:57:29;36.93;;;22.37;;
73814;SDS011;62145;55.648;37.602;2023-07-28T05:00:00;35.08;;;21.58;;
73814;SDS011;62145;55.648;37.602;2023-07-28T05:02:30;39.70;;;23.13;;
73814;SDS011;62145;55.648;37.602;2023-07-28T05:04:58;34.13;;;20.35;;
73814;SDS011;62145;55.648;37.602;2023-07-28T05:07:26;36.38;;;21.08;;
73814;SDS011;62145;55.648;37.602;2023-07-28T05:12:57;36.25;;;21.05;;
73814;SDS011;62145;55.648;37.602;2023-07-28T05:15:32;35.13;;;20.58;;
73814;SDS011;62145;55.648;37.602;2023-07-28T05:18:01;33.97;;;21.05;;
73814;SDS011;62145;55.648;37.602;2023-07-28T05:20:45;29.50;;;19.38;;
73814;SDS011;62145;55.648;37.602;2023-07-28T05:23:21;24.90;;;16.10;;
73814;SDS011;62145;55.648;37.602;2023-07-28T05:25:57;31.48;;;17.95;;
73814;SDS011;62145;55.648;37.602;2023-07-28T05:28:27;24.48;;;15.05;;
73814;SDS011;62145;55.648;37.602;2023-07-28T05:31:06;22.98;;;14.65;;
73814;SDS011;62145;55.648;37.602;2023-07-28T05:33:38;20.58;;;14.10;;
73814;SDS011;62145;55.648;37.602;2023-07-28T05:41:58;16.65;;;11.15;;
73814;SDS011;62145;55.648;37.602;2023-07-28T05:44:32;18.17;;;11.15;;
73814;SDS011;62145;55.648;37.602;2023-07-28T05:46:59;17.85;;;11.15;;
73814;SDS011;62145;55.648;37.602;2023-07-28T05:49:28;20.07;;;11.77;;
73814;SDS011;62145;55.648;37.602;2023-07-28T05:51:59;17.67;;;10.73;;
73814;SDS011;62145;55.648;37.602;2023-07-28T05:54:30;17.55;;;11.00;;
73814;SDS011;62145;55.648;37.602;2023-07-28T05:57:04;19.02;;;9.88;;
73814;SDS011;62145;55.648;37.602;2023-07-28T05:59:43;14.10;;;9.30;;
73814;SDS011;62145;55.648;37.602;2023-07-28T06:02:55;14.67;;;8.10;;
73814;SDS011;62145;55.648;37.602;2023-07-28T06:05:49;11.23;;;6.90;;
73814;SDS011;62145;55.648;37.602;2023-07-28T06:08:16;10.95;;;6.53;;
73814;SDS011;62145;55.648;37.602;2023-07-28T06:10:48;12.10;;;7.05;;
73814;SDS011;62145;55.648;37.602;2023-07-28T06:13:23;11.63;;;6.72;;
73814;SDS011;62145;55.648;37.602;2023-07-28T06:15:49;15.20;;;6.90;;
73814;SDS011;62145;55.648;37.602;2023-07-28T06:21:13;13.82;;;6.75;;
73814;SDS011;62145;55.648;37.602;2023-07-28T06:23:54;11.90;;;6.70;;
73814;SDS011;62145;55.648;37.602;2023-07-28T06:26:27;10.95;;;6.55;;
73814;SDS011;62145;55.648;37.602;2023-07-28T06:35:11;10.57;;;4.97;;
73814;SDS011;62145;55.648;37.602;2023-07-28T06:37:43;7.22;;;4.70;;
73814;SDS011;62145;55.648;37.602;2023-07-28T06:40:15;9.27;;;5.30;;
73814;SDS011;62145;55.648;37.602;2023-07-28T06:42:44;13.70;;;5.90;;
73814;SDS011;62145;55.648;37.602;2023-07-28T06:45:21;9.35;;;5.88;;
73814;SDS011;62145;55.648;37.602;2023-07-28T06:47:51;14.50;;;5.57;;
73814;SDS011;62145;55.648;37.602;2023-07-28T06:50:22;12.80;;;6.07;;
73814;SDS011;62145;55.648;37.602;2023-07-28T06:52:48;13.68;;;7.32;;
73814;SDS011;62145;55.648;37.602;2023-07-28T06:55:25;15.07;;;7.17;;
73814;SDS011;62145;55.648;37.602;2023-07-28T06:57:53;18.00;;;8.98;;
73814;SDS011;62145;55.648;37.602;2023-07-28T07:00:22;14.85;;;8.65;;
73814;SDS011;62145;55.648;37.602;2023-07-28T07:02:48;15.20;;;9.05;;
73814;SDS011;62145;55.648;37.602;2023-07-28T07:05:18;15.10;;;9.43;;
73814;SDS011;62145;55.648;37.602;2023-07-28T07:07:47;15.93;;;8.90;;
73814;SDS011;62145;55.648;37.602;2023-07-28T07:10:15;17.80;;;9.40;;
73814;SDS011;62145;55.648;37.602;2023-07-28T07:12:51;19.52;;;9.55;;
73814;SDS011;62145;55.648;37.602;2023-07-28T07:15:19;15.25;;;9.02;;
73814;SDS011;62145;55.648;37.602;2023-07-28T07:17:45;22.40;;;11.45;;
73814;SDS011;62145;55.648;37.602;2023-07-28T07:20:11;20.23;;;11.07;;
73814;SDS011;62145;55.648;37.602;2023-07-28T07:22:37;26.83;;;12.82;;
73814;SDS011;62145;55.648;37.602;2023-07-28T07:25:03;15.15;;;8.65;;
73814;SDS011;62145;55.648;37.602;2023-07-28T07:27:31;14.47;;;8.67;;
73814;SDS011;62145;55.648;37.602;2023-07-28T07:29:56;14.25;;;8.93;;
73814;SDS011;62145;55.648;37.602;2023-07-28T07:32:23;18.73;;;9.27;;
73814;SDS011;62145;55.648;37.602;2023-07-28T07:34:49;16.17;;;9.70;;
73814;SDS011;62145;55.648;37.602;2023-07-28T07:37:14;18.15;;;10.25;;
73814;SDS011;62145;55.648;37.602;2023-07-28T07:39:40;17.90;;;11.52;;
73814;SDS011;62145;55.648;37.602;2023-07-28T07:42:08;21.57;;;11.87;;
73814;SDS011;62145;55.648;37.602;2023-07-28T07:44:35;19.77;;;10.98;;
73814;SDS011;62145;55.648;37.602;2023-07-28T07:47:01;20.77;;;11.73;;
73814;SDS011;62145;55.648;37.602;2023-07-28T07:49:37;20.60;;;10.98;;
73814;SDS011;62145;55.648;37.602;2023-07-28T07:52:04;19.10;;;11.20;;
73814;SDS011;62145;55.648;37.602;2023-07-28T07:54:32;23.55;;;12.70;;
73814;SDS011;62145;55.648;37.602;2023-07-28T07:56:58;18.83;;;11.40;;
73814;SDS011;62145;55.648;37.602;2023-07-28T07:59:23;18.98;;;10.77;;
73814;SDS011;62145;55.648;37.602;2023-07-28T08:01:53;21.40;;;11.97;;
73814;SDS011;62145;55.648;37.602;2023-07-28T08:04:19;15.75;;;10.00;;
73814;SDS011;62145;55.648;37.602;2023-07-28T08:06:46;16.42;;;9.57;;
73814;SDS011;62145;55.648;37.602;2023-07-28T08:09:12;14.90;;;9.02;;
73814;SDS011;62145;55.648;37.602;2023-07-28T08:11:37;14.40;;;8.33;;
73814;SDS011;62145;55.648;37.602;2023-07-28T08:14:05;13.70;;;8.18;;
73814;SDS011;62145;55.648;37.602;2023-07-28T08:16:31;12.07;;;7.30;;
73814;SDS011;62145;55.648;37.602;2023-07-28T08:18:56;12.73;;;6.93;;
73814;SDS011;62145;55.648;37.602;2023-07-28T08:21:25;9.30;;;6.50;;
73814;SDS011;62145;55.648;37.602;2023-07-28T08:23:54;11.77;;;6.65;;
73814;SDS011;62145;55.648;37.602;2023-07-28T08:26:23;9.65;;;5.72;;
73814;SDS011;62145;55.648;37.602;2023-07-28T08:28:51;8.60;;;5.15;;
73814;SDS011;62145;55.648;37.602;2023-07-28T08:31:20;10.77;;;6.32;;
73814;SDS011;62145;55.648;37.602;2023-07-28T08:33:47;8.77;;;6.00;;
73814;SDS011;62145;55.648;37.602;2023-07-28T08:36:17;9.88;;;5.97;;
73814;SDS011;62145;55.648;37.602;2023-07-28T08:38:43;9.45;;;5.97;;
73814;SDS011;62145;55.648;37.602;2023-07-28T08:41:17;8.60;;;5.53;;
73814;SDS011;62145;55.648;37.602;2023-07-28T08:43:46;9.98;;;5.65;;
73814;SDS011;62145;55.648;37.602;2023-07-28T08:46:13;11.60;;;5.87;;
73814;SDS011;62145;55.648;37.602;2023-07-28T08:48:43;8.48;;;5.80;;
73814;SDS011;62145;55.648;37.602;2023-07-28T08:51:12;9.18;;;6.45;;
73814;SDS011;62145;55.648;37.602;2023-07-28T08:53:45;10.57;;;5.75;;
73814;SDS011;62145;55.648;37.602;2023-07-28T08:56:11;12.75;;;6.60;;
73814;SDS011;62145;55.648;37.602;2023-07-28T08:58:40;10.53;;;6.50;;
73814;SDS011;62145;55.648;37.602;2023-07-28T09:01:07;10.93;;;6.65;;
73814;SDS011;62145;55.648;37.602;2023-07-28T09:03:40;10.77;;;7.03;;
73814;SDS011;62145;55.648;37.602;2023-07-28T09:06:15;10.63;;;6.50;;
73814;SDS011;62145;55.648;37.602;2023-07-28T09:08:42;10.90;;;7.20;;
73814;SDS011;62145;55.648;37.602;2023-07-28T09:11:12;12.53;;;7.23;;
73814;SDS011;62145;55.648;37.602;2023-07-28T09:13:39;12.10;;;7.15;;
73814;SDS011;62145;55.648;37.602;2023-07-28T09:16:22;11.90;;;7.00;;
73814;SDS011;62145;55.648;37.602;2023-07-28T09:18:50;11.15;;;6.90;;
73814;SDS011;62145;55.648;37.602;2023-07-28T09:21:29;12.75;;;7.03;;
73814;SDS011;62145;55.648;37.602;2023-07-28T09:24:04;11.80;;;7.53;;
73814;SDS011;62145;55.648;37.602;2023-07-28T09:26:37;11.23;;;7.13;;
73814;SDS011;62145;55.648;37.602;2023-07-28T09:29:16;11.13;;;7.20;;
73814;SDS011;62145;55.648;37.602;2023-07-28T09:31:46;10.35;;;6.95;;
73814;SDS011;62145;55.648;37.602;2023-07-28T09:34:26;10.20;;;6.90;;
73814;SDS011;62145;55.648;37.602;2023-07-28T09:36:54;11.67;;;7.53;;
73814;SDS011;62145;55.648;37.602;2023-07-28T09:39:42;10.57;;;6.40;;
73814;SDS011;62145;55.648;37.602;2023-07-28T09:42:09;11.60;;;7.07;;
73814;SDS011;62145;55.648;37.602;2023-07-28T09:44:37;10.23;;;6.82;;
73814;SDS011;62145;55.648;37.602;2023-07-28T09:47:05;10.18;;;7.18;;
73814;SDS011;62145;55.648;37.602;2023-07-28T09:49:35;10.60;;;7.17;;
73814;SDS011;62145;55.648;37.602;2023-07-28T09:52:09;12.57;;;7.65;;
73814;SDS011;62145;55.648;37.602;2023-07-28T09:54:40;12.13;;;7.38;;
73814;SDS011;62145;55.648;37.602;2023-07-28T09:57:14;11.68;;;7.50;;
73814;SDS011;62145;55.648;37.602;2023-07-28T09:59:49;9.77;;;7.03;;
73814;SDS011;62145;55.648;37.602;2023-07-28T10:02:24;12.20;;;7.83;;
73814;SDS011;62145;55.648;37.602;2023-07-28T10:04:52;11.93;;;7.60;;
73814;SDS011;62145;55.648;37.602;2023-07-28T10:07:22;11.40;;;8.00;;
73814;SDS011;62145;55.648;37.602;2023-07-28T10:09:50;11.38;;;8.05;;
73814;SDS011;62145;55.648;37.602;2023-07-28T10:12:41;13.30;;;8.68;;
73814;SDS011;62145;55.648;37.602;2023-07-28T10:15:16;11.83;;;8.50;;
73814;SDS011;62145;55.648;37.602;2023-07-28T10:17:54;15.18;;;9.63;;
73814;SDS011;62145;55.648;37.602;2023-07-28T10:20:36;20.25;;;9.38;;
73814;SDS011;62145;55.648;37.602;2023-07-28T10:23:14;14.30;;;9.23;;
73814;SDS011;62145;55.648;37.602;2023-07-28T10:25:42;13.30;;;9.52;;
73814;SDS011;62145;55.648;37.602;2023-07-28T10:31:19;16.40;;;10.35;;
73814;SDS011;62145;55.648;37.602;2023-07-28T10:34:01;17.30;;;11.68;;
73814;SDS011;62145;55.648;37.602;2023-07-28T10:39:34;16.58;;;10.25;;
73814;SDS011;62145;55.648;37.602;2023-07-28T10:42:07;18.00;;;12.23;;
73814;SDS011;62145;55.648;37.602;2023-07-28T10:44:36;17.70;;;11.90;;
73814;SDS011;62145;55.648;37.602;2023-07-28T10:47:08;16.73;;;12.25;;
73814;SDS011;62145;55.648;37.602;2023-07-28T10:49:36;18.05;;;12.38;;
73814;SDS011;62145;55.648;37.602;2023-07-28T10:52:02;17.43;;;11.27;;
73814;SDS011;62145;55.648;37.602;2023-07-28T10:54:30;17.30;;;11.35;;
73814;SDS011;62145;55.648;37.602;2023-07-28T10:56:56;16.52;;;11.52;;
73814;SDS011;62145;55.648;37.602;2023-07-28T10:59:27;19.10;;;12.02;;
73814;SDS011;62145;55.648;37.602;2023-07-28T11:01:53;17.80;;;12.00;;
73814;SDS011;62145;55.648;37.602;2023-07-28T11:04:20;16.93;;;11.07;;
73814;SDS011;62145;55.648;37.602;2023-07-28T11:06:48;16.38;;;11.43;;
73814;SDS011;62145;55.648;37.602;2023-07-28T11:09:19;16.63;;;11.57;;
73814;SDS011;62145;55.648;37.602;2023-07-28T11:11:51;17.17;;;11.02;;
73814;SDS011;62145;55.648;37.602;2023-07-28T11:14:20;15.10;;;10.40;;
73814;SDS011;62145;55.648;37.602;2023-07-28T11:16:51;15.13;;;10.13;;
73814;SDS011;62145;55.648;37.602;2023-07-28T11:19:20;15.68;;;10.63;;
73814;SDS011;62145;55.648;37.602;2023-07-28T11:21:54;15.90;;;10.98;;
73814;SDS011;62145;55.648;37.602;2023-07-28T11:24:20;14.80;;;10.27;;
73814;SDS011;62145;55.648;37.602;2023-07-28T11:26:46;16.13;;;10.97;;
73814;SDS011;62145;55.648;37.602;2023-07-28T11:29:12;17.48;;;11.15;;
73814;SDS011;62145;55.648;37.602;2023-07-28T11:31:38;13.57;;;9.43;;
73814;SDS011;62145;55.648;37.602;2023-07-28T11:34:40;12.07;;;9.02;;
73814;SDS011;62145;55.648;37.602;2023-07-28T11:37:01;16.55;;;10.38;;
73814;SDS011;62145;55.648;37.602;2023-07-28T11:39:30;13.53;;;9.73;;
73814;SDS011;62145;55.648;37.602;2023-07-28T11:41:56;14.30;;;9.77;;
73814;SDS011;62145;55.648;37.602;2023-07-28T11:44:22;14.32;;;9.25;;
73814;SDS011;62145;55.648;37.602;2023-07-28T11:46:49;13.90;;;9.50;;
73814;SDS011;62145;55.648;37.602;2023-07-28T11:49:19;13.07;;;9.25;;
73814;SDS011;62145;55.648;37.602;2023-07-28T11:51:52;13.07;;;9.10;;
73814;SDS011;62145;55.648;37.602;2023-07-28T11:54:23;14.15;;;9.23;;
73814;SDS011;62145;55.648;37.602;2023-07-28T11:56:51;15.07;;;10.25;;
73814;SDS011;62145;55.648;37.602;2023-07-28T11:59:20;16.25;;;8.93;;
73814;SDS011;62145;55.648;37.602;2023-07-28T12:01:53;14.23;;;8.93;;
73814;SDS011;62145;55.648;37.602;2023-07-28T12:04:36;13.07;;;8.57;;
73814;SDS011;62145;55.648;37.602;2023-07-28T12:07:04;15.10;;;9.05;;
73814;SDS011;62145;55.648;37.602;2023-07-28T12:12:16;13.75;;;8.57;;
73814;SDS011;62145;55.648;37.602;2023-07-28T12:14:44;12.82;;;8.70;;
73814;SDS011;62145;55.648;37.602;2023-07-28T12:17:14;13.63;;;8.90;;
73814;SDS011;62145;55.648;37.602;2023-07-28T12:19:41;15.23;;;9.63;;
73814;SDS011;62145;55.648;37.602;2023-07-28T12:22:08;16.67;;;9.50;;
73814;SDS011;62145;55.648;37.602;2023-07-28T12:24:34;15.00;;;9.23;;
73814;SDS011;62145;55.648;37.602;2023-07-28T12:26:59;16.47;;;9.50;;
73814;SDS011;62145;55.648;37.602;2023-07-28T12:29:25;14.02;;;8.80;;
73814;SDS011;62145;55.648;37.602;2023-07-28T12:31:51;16.25;;;9.35;;
73814;SDS011;62145;55.648;37.602;2023-07-28T12:34:17;14.97;;;9.90;;
73814;SDS011;62145;55.648;37.602;2023-07-28T12:36:43;12.90;;;9.63;;
73814;SDS011;62145;55.648;37.602;2023-07-28T12:39:10;17.30;;;10.32;;
73814;SDS011;62145;55.648;37.602;2023-07-28T12:41:36;15.17;;;10.27;;
73814;SDS011;62145;55.648;37.602;2023-07-28T12:44:01;10.85;;;7.00;;
73814;SDS011;62145;55.648;37.602;2023-07-28T12:46:27;7.47;;;4.32;;
73814;SDS011;62145;55.648;37.602;2023-07-28T12:48:54;7.95;;;4.20;;
73814;SDS011;62145;55.648;37.602;2023-07-28T12:51:20;5.80;;;3.43;;
73814;SDS011;62145;55.648;37.602;2023-07-28T12:53:46;6.35;;;3.40;;
73814;SDS011;62145;55.648;37.602;2023-07-28T12:56:12;6.82;;;3.20;;
73814;SDS011;62145;55.648;37.602;2023-07-28T12:58:38;6.80;;;3.20;;
73814;SDS011;62145;55.648;37.602;2023-07-28T13:01:04;8.53;;;3.30;;
73814;SDS011;62145;55.648;37.602;2023-07-28T13:03:30;6.65;;;3.25;;
73814;SDS011;62145;55.648;37.602;2023-07-28T13:05:56;6.03;;;3.10;;
73814;SDS011;62145;55.648;37.602;2023-07-28T13:08:22;8.03;;;3.43;;
73814;SDS011;62145;55.648;37.602;2023-07-28T13:10:48;5.90;;;3.13;;
73814;SDS011;62145;55.648;37.602;2023-07-28T13:13:14;7.30;;;3.50;;
73814;SDS011;62145;55.648;37.602;2023-07-28T13:15:40;6.43;;;3.33;;
73814;SDS011;62145;55.648;37.602;2023-07-28T13:18:06;6.50;;;3.13;;
73814;SDS011;62145;55.648;37.602;2023-07-28T13:20:32;6.55;;;3.63;;
73814;SDS011;62145;55.648;37.602;2023-07-28T13:22:57;7.20;;;3.60;;
73814;SDS011;62145;55.648;37.602;2023-07-28T13:25:23;6.57;;;3.50;;
73814;SDS011;62145;55.648;37.602;2023-07-28T13:27:49;7.97;;;4.15;;
73814;SDS011;62145;55.648;37.602;2023-07-28T13:30:15;8.13;;;4.05;;
73814;SDS011;62145;55.648;37.602;2023-07-28T13:32:41;8.57;;;3.80;;
73814;SDS011;62145;55.648;37.602;2023-07-28T13:35:07;8.35;;;4.20;;
73814;SDS011;62145;55.648;37.602;2023-07-28T13:37:33;7.43;;;3.88;;
73814;SDS011;62145;55.648;37.602;2023-07-28T13:39:59;7.70;;;3.45;;
73814;SDS011;62145;55.648;37.602;2023-07-28T13:42:25;7.93;;;3.70;;
73814;SDS011;62145;55.648;37.602;2023-07-28T13:44:51;8.10;;;3.50;;
73814;SDS011;62145;55.648;37.602;2023-07-28T13:47:17;7.05;;;3.15;;
73814;SDS011;62145;55.648;37.602;2023-07-28T13:49:43;5.70;;;2.83;;
73814;SDS011;62145;55.648;37.602;2023-07-28T13:52:09;6.88;;;2.92;;
73814;SDS011;62145;55.648;37.602;2023-07-28T13:54:34;5.47;;;2.65;;
73814;SDS011;62145;55.648;37.602;2023-07-28T13:57:01;7.37;;;2.50;;
73814;SDS011;62145;55.648;37.602;2023-07-28T13:59:27;5.82;;;2.65;;
73814;SDS011;62145;55.648;37.602;2023-07-28T14:01:53;8.68;;;2.80;;
73814;SDS011;62145;55.648;37.602;2023-07-28T14:04:20;7.45;;;3.10;;
73814;SDS011;62145;55.648;37.602;2023-07-28T14:06:46;6.53;;;2.50;;
73814;SDS011;62145;55.648;37.602;2023-07-28T14:09:12;7.03;;;3.27;;
73814;SDS011;62145;55.648;37.602;2023-07-28T14:11:38;6.95;;;3.22;;
73814;SDS011;62145;55.648;37.602;2023-07-28T14:14:04;7.95;;;3.40;;
73814;SDS011;62145;55.648;37.602;2023-07-28T14:16:30;8.03;;;3.30;;
73814;SDS011;62145;55.648;37.602;2023-07-28T14:18:56;8.50;;;3.42;;
73814;SDS011;62145;55.648;37.602;2023-07-28T14:21:22;8.07;;;3.40;;
73814;SDS011;62145;55.648;37.602;2023-07-28T14:23:47;8.43;;;3.63;;
73814;SDS011;62145;55.648;37.602;2023-07-28T14:26:13;7.00;;;3.28;;
73814;SDS011;62145;55.648;37.602;2023-07-28T14:28:40;6.90;;;3.10;;
73814;SDS011;62145;55.648;37.602;2023-07-28T14:31:06;7.37;;;3.33;;
73814;SDS011;62145;55.648;37.602;2023-07-28T14:33:32;8.50;;;3.63;;
73814;SDS011;62145;55.648;37.602;2023-07-28T14:35:58;7.28;;;3.10;;
73814;SDS011;62145;55.648;37.602;2023-07-28T14:38:24;6.97;;;2.75;;
73814;SDS011;62145;55.648;37.602;2023-07-28T14:40:50;5.97;;;2.77;;
73814;SDS011;62145;55.648;37.602;2023-07-28T14:43:17;6.13;;;3.10;;
73814;SDS011;62145;55.648;37.602;2023-07-28T14:45:43;5.82;;;2.83;;
73814;SDS011;62145;55.648;37.602;2023-07-28T14:48:09;7.38;;;3.25;;
73814;SDS011;62145;55.648;37.602;2023-07-28T14:50:36;8.03;;;2.90;;
73814;SDS011;62145;55.648;37.602;2023-07-28T14:53:02;6.80;;;3.05;;
73814;SDS011;62145;55.648;37.602;2023-07-28T14:55:27;6.65;;;2.90;;
73814;SDS011;62145;55.648;37.602;2023-07-28T14:57:53;6.47;;;3.10;;
73814;SDS011;62145;55.648;37.602;2023-07-28T15:00:19;7.28;;;3.55;;
73814;SDS011;62145;55.648;37.602;2023-07-28T15:02:45;9.02;;;3.40;;
73814;SDS011;62145;55.648;37.602;2023-07-28T15:05:11;6.53;;;3.10;;
73814;SDS011;62145;55.648;37.602;2023-07-28T15:07:37;7.40;;;3.03;;
73814;SDS011;62145;55.648;37.602;2023-07-28T15:10:03;8.07;;;3.50;;
73814;SDS011;62145;55.648;37.602;2023-07-28T15:12:29;6.40;;;3.30;;
73814;SDS011;62145;55.648;37.602;2023-07-28T15:14:56;8.65;;;3.60;;
73814;SDS011;62145;55.648;37.602;2023-07-28T15:17:21;7.80;;;3.70;;
73814;SDS011;62145;55.648;37.602;2023-07-28T15:19:47;7.47;;;3.53;;
73814;SDS011;62145;55.648;37.602;2023-07-28T15:22:13;6.90;;;3.65;;
73814;SDS011;62145;55.648;37.602;2023-07-28T15:24:39;7.97;;;3.65;;
73814;SDS011;62145;55.648;37.602;2023-07-28T15:27:06;7.22;;;3.65;;
73814;SDS011;62145;55.648;37.602;2023-07-28T15:29:32;16.60;;;3.70;;
73814;SDS011;62145;55.648;37.602;2023-07-28T15:31:58;9.20;;;3.70;;
73814;SDS011;62145;55.648;37.602;2023-07-28T15:34:24;6.88;;;3.83;;
73814;SDS011;62145;55.648;37.602;2023-07-28T15:36:49;8.80;;;4.03;;
73814;SDS011;62145;55.648;37.602;2023-07-28T15:39:16;8.77;;;3.42;;
73814;SDS011;62145;55.648;37.602;2023-07-28T15:41:42;8.48;;;3.90;;